createdAt,value
2022-10-09T09:15:58.391Z,92
2022-10-09T09:21:46.105Z,89.9
2022-10-09T09:27:35.233Z,89.1
2022-10-09T09:33:24.133Z,88.5
2022-10-09T09:46:32.209Z,86.7
2022-10-09T09:52:23.794Z,84.5
2022-10-09T09:58:15.409Z,84
2022-10-09T10:04:06.381Z,83.9
2022-10-09T10:09:57.954Z,83.1
2022-10-09T10:15:48.693Z,81.8
2022-10-09T10:21:41.307Z,81.1
2022-10-09T10:27:34.054Z,80.7
2022-10-09T10:33:25.097Z,78.5
2022-10-09T10:39:15.639Z,78.8
2022-10-09T10:45:06.623Z,78.3
2022-10-09T10:50:56.706Z,77.4
2022-10-09T10:56:48.661Z,76.8
2022-10-09T11:02:44.376Z,75.8
2022-10-09T11:08:34.490Z,72.7
2022-10-09T11:14:24.153Z,73.4
2022-10-09T11:20:15.441Z,72.1
2022-10-09T11:26:07.254Z,70.6
2022-10-09T11:31:58.240Z,70.2
2022-10-09T11:37:51.898Z,69.1
2022-10-09T11:43:42.016Z,68.1
2022-10-09T11:49:30.696Z,66.8
2022-10-09T11:55:19.873Z,64.5
2022-10-09T12:01:10.913Z,65.1
2022-10-09T12:07:01.842Z,64.7
2022-10-09T12:12:53.268Z,63.2
2022-10-09T12:18:44.207Z,63.5
2022-10-09T12:24:35.488Z,63
2022-10-09T12:30:24.632Z,62.1
2022-10-09T12:36:16.974Z,62
2022-10-09T12:42:06.538Z,62.4
2022-10-09T12:47:58.659Z,62
2022-10-09T12:53:49.176Z,60.6
2022-10-09T12:59:40.282Z,61.8
2022-10-09T13:05:30.887Z,59.9
2022-10-09T13:11:21.355Z,61.2
2022-10-09T13:17:14.406Z,59.3
2022-10-09T13:23:07.079Z,60.1
2022-10-09T13:28:57.866Z,59.9
2022-10-09T13:34:49.471Z,57.1
2022-10-09T13:41:54.412Z,59.2
2022-10-09T13:47:46.084Z,58
2022-10-09T13:53:40.817Z,57.8
2022-10-09T13:59:29.776Z,58.3
2022-10-09T14:05:22.577Z,58.5
2022-10-09T14:11:13.816Z,57.1
2022-10-09T14:17:05.061Z,56.1
2022-10-09T14:22:56.959Z,54.4
2022-10-09T14:28:50.211Z,51.7
2022-10-09T14:34:43.198Z,52.6
2022-10-09T14:40:47.203Z,50.4
2022-10-09T14:47:01.033Z,52.2
2022-10-09T14:52:51.603Z,52
2022-10-09T14:58:42.589Z,50.9
2022-10-09T15:04:33.430Z,52
2022-10-09T15:10:25.258Z,50.8
2022-10-09T15:16:24.698Z,53.6
2022-10-09T15:22:15.683Z,53.3
2022-10-09T15:28:11.125Z,50.8
2022-10-09T15:34:03.821Z,52.9
2022-10-09T15:39:54.328Z,53.9
2022-10-09T15:45:56.877Z,53.7
2022-10-09T15:51:56.465Z,55.3
2022-10-09T15:58:05.359Z,54.4
2022-10-09T16:04:15.201Z,55.6
2022-10-09T16:10:06.565Z,56
2022-10-09T16:16:01.439Z,56.8
2022-10-09T16:21:56.694Z,57.1
2022-10-09T16:27:48.021Z,57.8
2022-10-09T16:33:39.803Z,57.8
2022-10-09T16:39:29.241Z,58.9
2022-10-09T16:45:22.346Z,61.2
2022-10-09T16:51:14.157Z,64
2022-10-09T16:57:17.217Z,65.3
2022-10-09T17:03:07.820Z,67.8
2022-10-09T17:08:57.172Z,69.5
2022-10-09T17:14:55.361Z,70.1
2022-10-09T17:20:46.093Z,68.8
2022-10-09T17:26:44.215Z,70.7
2022-10-09T17:32:38.995Z,72.3
2022-10-09T17:38:31.459Z,72.6
2022-10-09T17:44:24.644Z,72.6
2022-10-09T17:50:15.313Z,72.5
2022-10-09T17:56:11.412Z,74.9
2022-10-09T18:02:13.452Z,74.6
2022-10-09T18:08:11.385Z,75.1
2022-10-09T18:14:29.710Z,75
2022-10-09T18:26:40.510Z,75.4
2022-10-09T18:38:41.224Z,76.2
2022-10-09T18:44:41.264Z,77.6
2022-10-09T18:50:38.795Z,77.3
2022-10-09T18:56:46.074Z,75.8
2022-10-09T19:02:44.370Z,76.5
2022-10-09T19:08:42.006Z,75.8
2022-10-09T19:14:40.108Z,75.8
2022-10-09T19:20:38.271Z,75.6
2022-10-09T19:26:34.340Z,75
2022-10-09T19:32:49.393Z,75.1
2022-10-09T19:39:03.670Z,75.4
